createdAt,value
2023-01-19T07:59:39.509Z,0.50
2023-01-19T08:00:39.420Z,0.50
2023-01-19T08:01:39.522Z,0.50
2023-01-19T08:02:39.420Z,0.50
2023-01-19T08:03:39.427Z,0.50
2023-01-19T08:04:39.565Z,0.35
2023-01-19T08:05:39.420Z,0.34
2023-01-19T08:06:39.432Z,0.34
2023-01-19T08:07:39.499Z,0.34
2023-01-19T08:08:39.340Z,0.34
2023-01-19T08:09:39.330Z,0.34
2023-01-19T08:10:39.336Z,0.34
2023-01-19T08:11:39.340Z,0.34
2023-01-19T08:12:39.353Z,0.34
2023-01-19T08:13:39.431Z,0.34
2023-01-19T08:14:39.339Z,0.38
2023-01-19T08:15:39.366Z,0.55
2023-01-19T08:16:39.340Z,1.25
2023-01-19T08:17:39.349Z,1.48
2023-01-19T08:18:39.260Z,1.43
2023-01-19T08:19:41.543Z,1.35
2023-01-19T08:20:39.300Z,1.35
2023-01-19T08:21:39.294Z,1.36
2023-01-19T08:22:39.266Z,1.42
2023-01-19T08:23:39.302Z,1.76
2023-01-19T08:24:39.246Z,1.42
2023-01-19T08:25:39.259Z,1.52
2023-01-19T08:26:39.259Z,1.44
2023-01-19T08:27:39.264Z,1.53
2023-01-19T08:28:39.280Z,1.28
2023-01-19T08:29:39.179Z,1.22
2023-01-19T08:30:39.215Z,1.22
2023-01-19T08:31:39.334Z,1.13
2023-01-19T08:32:39.187Z,1.04
2023-01-19T08:33:39.262Z,1.11
2023-01-19T08:34:39.190Z,1.02
2023-01-19T08:35:39.283Z,1.09
2023-01-19T08:36:39.241Z,0.97
2023-01-19T08:37:39.204Z,0.83
2023-01-19T08:38:39.160Z,0.87
2023-01-19T08:39:39.291Z,0.82
2023-01-19T08:40:39.170Z,0.72
2023-01-19T08:41:39.186Z,0.67
2023-01-19T08:42:39.402Z,0.89
2023-01-19T08:43:39.249Z,0.67
2023-01-19T08:44:46.692Z,0.64
2023-01-19T08:45:40.091Z,0.43
2023-01-19T08:46:39.521Z,0.35
2023-01-19T08:47:39.222Z,0.34
2023-01-19T08:48:40.003Z,0.34
